createdAt,value
2023-08-09T00:00:44.551Z,100.00
2023-08-09T00:03:37.876Z,100.00
2023-08-09T00:06:23.771Z,100.00
2023-08-09T00:09:12.062Z,100.00
2023-08-09T00:11:58.102Z,100.00
2023-08-09T00:14:44.721Z,100.00
2023-08-09T00:17:30.471Z,100.00
2023-08-09T00:20:16.845Z,100.00
2023-08-09T00:23:03.064Z,100.00
2023-08-09T00:25:49.298Z,100.00
2023-08-09T00:28:35.339Z,100.00
2023-08-09T00:31:21.821Z,100.00
2023-08-09T00:34:07.964Z,100.00
2023-08-09T00:36:54.568Z,100.00
2023-08-09T00:39:40.743Z,100.00
2023-08-09T00:42:28.006Z,100.00
2023-08-09T00:45:14.415Z,100.00
2023-08-09T00:48:01.338Z,100.00
2023-08-09T00:50:48.601Z,100.00
2023-08-09T00:53:35.825Z,100.00
2023-08-09T00:56:23.099Z,100.00
2023-08-09T00:59:09.398Z,100.00
2023-08-09T01:01:56.126Z,100.00
2023-08-09T01:04:43.040Z,100.00
2023-08-09T01:07:33.928Z,100.00
2023-08-09T01:10:27.817Z,100.00
2023-08-09T01:13:14.008Z,100.00
2023-08-09T01:16:01.222Z,100.00
2023-08-09T01:18:49.314Z,100.00
2023-08-09T01:21:37.581Z,100.00
2023-08-09T01:24:23.652Z,100.00
2023-08-09T01:27:10.563Z,100.00
2023-08-09T01:29:57.590Z,100.00
2023-08-09T01:32:43.858Z,100.00
2023-08-09T01:35:32.776Z,100.00
2023-08-09T01:38:24.003Z,100.00
2023-08-09T01:41:09.759Z,100.00
2023-08-09T01:43:57.299Z,100.00
2023-08-09T01:46:44.427Z,100.00
2023-08-09T01:49:30.810Z,100.00
2023-08-09T01:52:17.107Z,100.00
2023-08-09T01:55:04.089Z,100.00
2023-08-09T01:57:50.615Z,100.00
2023-08-09T02:00:37.277Z,100.00
2023-08-09T02:03:23.755Z,100.00
2023-08-09T02:06:09.856Z,100.00
2023-08-09T02:08:56.033Z,100.00
2023-08-09T02:11:42.661Z,100.00
2023-08-09T02:14:28.951Z,100.00
2023-08-09T02:17:15.444Z,100.00
2023-08-09T02:20:02.266Z,100.00
2023-08-09T02:22:50.198Z,100.00
2023-08-09T02:25:36.663Z,100.00
2023-08-09T02:28:22.701Z,100.00
2023-08-09T02:31:12.522Z,100.00
2023-08-09T02:33:59.695Z,100.00
2023-08-09T02:36:46.587Z,100.00
2023-08-09T02:39:33.636Z,100.00
2023-08-09T02:42:20.344Z,100.00
2023-08-09T02:45:07.485Z,100.00
2023-08-09T02:47:53.779Z,100.00
2023-08-09T02:50:40.889Z,100.00
2023-08-09T02:53:34.429Z,100.00
2023-08-09T02:56:20.986Z,100.00
2023-08-09T02:59:07.113Z,100.00
2023-08-09T03:01:54.018Z,100.00
2023-08-09T03:04:39.961Z,100.00
2023-08-09T03:07:26.526Z,100.00
2023-08-09T03:10:12.424Z,100.00
2023-08-09T03:12:58.945Z,100.00
2023-08-09T03:15:45.576Z,100.00
2023-08-09T03:18:32.164Z,100.00
2023-08-09T03:21:19.049Z,100.00
2023-08-09T03:24:07.158Z,100.00
2023-08-09T03:26:53.354Z,100.00
2023-08-09T03:29:40.282Z,100.00
2023-08-09T03:32:26.441Z,100.00
2023-08-09T03:35:12.555Z,100.00
2023-08-09T03:37:59.164Z,100.00
2023-08-09T03:40:46.051Z,100.00
2023-08-09T03:43:32.404Z,100.00
2023-08-09T03:46:18.629Z,100.00
2023-08-09T03:49:07.204Z,100.00
2023-08-09T03:51:56.194Z,100.00
2023-08-09T03:54:42.354Z,100.00
2023-08-09T03:57:28.731Z,100.00
2023-08-09T04:00:24.010Z,100.00
2023-08-09T04:03:10.109Z,100.00
2023-08-09T04:05:57.108Z,100.00
2023-08-09T04:08:44.217Z,100.00
2023-08-09T04:11:31.286Z,100.00
2023-08-09T04:14:17.327Z,100.00
2023-08-09T04:17:05.683Z,100.00
2023-08-09T04:19:52.434Z,100.00
2023-08-09T04:22:38.762Z,100.00
2023-08-09T04:25:25.590Z,100.00
2023-08-09T04:28:14.356Z,100.00
2023-08-09T04:31:03.243Z,100.00
2023-08-09T04:33:50.848Z,100.00
2023-08-09T04:36:37.350Z,100.00
2023-08-09T04:39:25.379Z,100.00
2023-08-09T04:42:11.727Z,100.00
2023-08-09T04:44:58.040Z,100.00
2023-08-09T04:47:44.174Z,100.00
2023-08-09T04:50:30.441Z,100.00
2023-08-09T04:53:16.710Z,100.00
2023-08-09T04:56:04.462Z,100.00
2023-08-09T04:58:50.849Z,100.00
2023-08-09T05:01:36.929Z,100.00
2023-08-09T05:04:23.621Z,100.00
2023-08-09T05:07:09.849Z,100.00
2023-08-09T05:09:56.614Z,100.00
2023-08-09T05:12:43.239Z,100.00
2023-08-09T05:15:29.558Z,100.00
2023-08-09T05:18:15.450Z,100.00
2023-08-09T05:21:01.340Z,100.00
2023-08-09T05:23:47.318Z,100.00
2023-08-09T05:26:34.140Z,100.00
2023-08-09T05:29:20.302Z,100.00
2023-08-09T05:32:06.785Z,100.00
2023-08-09T05:34:53.787Z,100.00
2023-08-09T05:37:40.029Z,100.00
2023-08-09T05:40:26.759Z,100.00
2023-08-09T05:43:13.672Z,100.00
2023-08-09T05:45:59.622Z,100.00
2023-08-09T05:48:46.133Z,100.00
2023-08-09T05:51:33.004Z,100.00
2023-08-09T05:54:19.767Z,100.00
2023-08-09T05:57:05.539Z,100.00
2023-08-09T05:59:51.911Z,100.00
2023-08-09T06:02:38.450Z,100.00
2023-08-09T06:05:28.337Z,100.00
2023-08-09T06:08:14.361Z,100.00
2023-08-09T06:11:00.972Z,100.00
2023-08-09T06:13:47.320Z,100.00
2023-08-09T06:16:35.348Z,100.00
2023-08-09T06:19:21.417Z,99.85
2023-08-09T06:22:07.733Z,99.24
2023-08-09T06:24:53.630Z,100.00
2023-08-09T06:27:40.254Z,99.18
2023-08-09T06:30:26.042Z,98.49
2023-08-09T06:33:12.987Z,98.54
2023-08-09T06:35:58.984Z,97.18
2023-08-09T06:38:45.524Z,97.13
2023-08-09T06:41:32.020Z,96.92
2023-08-09T06:44:18.431Z,97.04
2023-08-09T06:47:04.562Z,96.84
2023-08-09T06:49:52.844Z,96.81
2023-08-09T06:52:38.782Z,96.17
2023-08-09T06:55:25.395Z,95.65
2023-08-09T06:58:11.525Z,95.91
2023-08-09T07:00:58.476Z,95.95
2023-08-09T07:03:45.151Z,95.96
2023-08-09T07:06:32.682Z,96.35
2023-08-09T07:09:19.599Z,97.11
2023-08-09T07:12:06.631Z,97.00
2023-08-09T07:14:58.154Z,96.49
2023-08-09T07:17:47.689Z,96.17
2023-08-09T07:20:33.809Z,95.17
2023-08-09T07:23:35.959Z,95.03
2023-08-09T07:26:28.171Z,94.36
2023-08-09T07:29:15.478Z,93.94
2023-08-09T07:32:02.658Z,93.48
2023-08-09T07:34:56.898Z,93.80
2023-08-09T07:37:52.772Z,93.15
2023-08-09T07:40:40.502Z,93.35
2023-08-09T07:43:26.517Z,93.22
2023-08-09T07:46:13.284Z,93.64
2023-08-09T07:48:59.864Z,93.75
2023-08-09T07:51:46.228Z,93.04
2023-08-09T07:54:34.348Z,93.72
2023-08-09T07:57:21.047Z,93.21
2023-08-09T08:00:15.959Z,93.28
2023-08-09T08:03:05.433Z,93.64
2023-08-09T08:05:51.448Z,93.45
2023-08-09T08:08:38.309Z,93.42
2023-08-09T08:11:23.982Z,93.86
2023-08-09T08:14:14.200Z,93.98
2023-08-09T08:17:00.876Z,93.66
2023-08-09T08:19:47.677Z,93.61
2023-08-09T08:22:34.009Z,94.02
2023-08-09T08:25:21.374Z,93.80
2023-08-09T08:28:08.939Z,94.09
2023-08-09T08:30:56.704Z,94.36
2023-08-09T08:33:46.585Z,93.22
2023-08-09T08:36:33.749Z,92.59
2023-08-09T08:39:22.801Z,92.73
2023-08-09T08:42:10.279Z,91.84
2023-08-09T08:44:56.676Z,91.31
2023-08-09T08:47:44.866Z,91.42
2023-08-09T08:50:31.712Z,91.28
2023-08-09T08:53:21.160Z,90.56
2023-08-09T08:56:06.936Z,91.11
2023-08-09T08:58:53.813Z,90.66
2023-08-09T09:01:40.154Z,90.90
2023-08-09T09:04:26.711Z,91.05
2023-08-09T09:07:14.231Z,90.86
2023-08-09T09:10:05.963Z,90.72
2023-08-09T09:12:57.590Z,89.86
2023-08-09T09:15:45.981Z,89.97
2023-08-09T09:18:32.076Z,89.86
2023-08-09T09:21:19.816Z,90.06
2023-08-09T09:24:08.727Z,90.34
2023-08-09T09:26:55.598Z,90.86
2023-08-09T09:39:38.698Z,93.83
2023-08-09T09:42:53.300Z,95.28
2023-08-09T09:46:36.686Z,95.91
2023-08-09T09:49:25.268Z,97.13
2023-08-09T09:52:11.615Z,97.73
2023-08-09T09:54:58.454Z,98.91
2023-08-09T09:57:44.435Z,98.90
2023-08-09T10:00:33.640Z,99.81
2023-08-09T10:03:26.139Z,100.00
2023-08-09T10:06:17.110Z,100.00
2023-08-09T10:09:06.351Z,100.00
2023-08-09T10:11:54.629Z,100.00
2023-08-09T10:14:41.095Z,100.00
2023-08-09T10:17:29.388Z,100.00
2023-08-09T10:20:17.317Z,100.00
2023-08-09T10:23:03.971Z,100.00
2023-08-09T10:25:51.597Z,100.00
2023-08-09T10:28:46.190Z,100.00
2023-08-09T10:31:50.568Z,100.00
2023-08-09T10:34:44.130Z,100.00
2023-08-09T10:37:31.157Z,100.00
2023-08-09T10:40:20.356Z,100.00
2023-08-09T10:43:06.874Z,100.00
2023-08-09T10:45:56.739Z,100.00
2023-08-09T10:48:52.669Z,100.00
2023-08-09T10:51:47.114Z,100.00
2023-08-09T10:54:33.065Z,100.00
2023-08-09T10:57:19.120Z,98.72
2023-08-09T11:00:06.278Z,98.66
2023-08-09T11:03:00.228Z,98.12
2023-08-09T11:05:46.567Z,97.68
2023-08-09T11:08:33.106Z,96.98
2023-08-09T11:11:19.834Z,96.01
2023-08-09T11:14:08.732Z,96.35
2023-08-09T11:17:01.856Z,95.75
2023-08-09T11:19:50.387Z,95.46
2023-08-09T11:22:36.282Z,94.43
2023-08-09T11:25:22.858Z,93.85
2023-08-09T11:28:12.993Z,93.47
2023-08-09T11:31:00.197Z,93.03
2023-08-09T11:33:46.457Z,91.79
2023-08-09T11:36:33.767Z,91.61
2023-08-09T11:39:21.140Z,92.27
2023-08-09T11:42:08.021Z,90.71
2023-08-09T11:44:54.006Z,89.66
2023-08-09T11:47:40.227Z,88.40
2023-08-09T11:50:26.974Z,88.39
2023-08-09T11:53:14.171Z,87.67
2023-08-09T11:56:01.833Z,87.25
2023-08-09T11:58:57.411Z,87.00
2023-08-09T12:01:46.354Z,86.27
2023-08-09T12:04:33.669Z,86.48
2023-08-09T12:07:22.538Z,86.50
2023-08-09T12:10:14.505Z,85.44
2023-08-09T12:13:01.458Z,84.88
2023-08-09T12:15:48.744Z,84.89
2023-08-09T12:18:37.778Z,84.51
2023-08-09T12:21:25.319Z,83.94
2023-08-09T12:24:11.810Z,83.50
2023-08-09T12:26:59.013Z,83.33
2023-08-09T12:29:45.239Z,82.10
2023-08-09T12:32:40.584Z,82.20
2023-08-09T12:35:28.642Z,81.05
2023-08-09T12:38:17.494Z,81.16
2023-08-09T12:41:03.528Z,80.37
2023-08-09T12:43:51.435Z,80.07
2023-08-09T12:46:38.048Z,79.84
2023-08-09T12:49:24.784Z,79.70
2023-08-09T12:52:10.652Z,79.21
2023-08-09T12:54:58.616Z,79.45
2023-08-09T12:57:46.555Z,78.61
2023-08-09T13:00:33.517Z,78.61
2023-08-09T13:03:19.544Z,78.60
2023-08-09T13:06:06.345Z,78.29
2023-08-09T13:08:53.797Z,78.08
2023-08-09T13:11:41.461Z,78.45
2023-08-09T13:14:27.223Z,78.15
2023-08-09T13:17:13.310Z,77.68
2023-08-09T13:19:59.484Z,77.56
2023-08-09T13:22:47.217Z,76.96
2023-08-09T13:25:33.220Z,76.69
2023-08-09T13:28:20.104Z,76.44
2023-08-09T13:31:05.976Z,76.32
2023-08-09T13:33:52.548Z,76.40
2023-08-09T13:36:38.969Z,75.75
2023-08-09T13:39:26.037Z,75.49
2023-08-09T13:42:12.052Z,75.48
2023-08-09T13:44:58.432Z,75.35
2023-08-09T13:47:44.442Z,75.24
2023-08-09T13:50:38.872Z,74.96
2023-08-09T13:53:24.736Z,75.34
2023-08-09T13:56:11.737Z,75.10
2023-08-09T13:58:58.418Z,75.38
2023-08-09T14:01:44.750Z,74.22
2023-08-09T14:04:31.247Z,74.46
2023-08-09T14:07:18.161Z,74.68
2023-08-09T14:10:04.982Z,74.55
2023-08-09T14:12:51.612Z,74.64
2023-08-09T14:15:38.035Z,74.63
2023-08-09T14:18:25.476Z,74.62
2023-08-09T14:21:12.127Z,74.15
2023-08-09T14:23:58.615Z,73.80
2023-08-09T14:26:44.757Z,74.29
2023-08-09T14:29:34.071Z,73.97
2023-08-09T14:32:20.359Z,73.47
2023-08-09T14:35:10.667Z,73.68
2023-08-09T14:37:56.522Z,73.15
2023-08-09T14:40:43.658Z,73.52
2023-08-09T14:43:29.792Z,73.46
2023-08-09T14:46:17.566Z,73.55
2023-08-09T14:49:10.930Z,73.77
2023-08-09T14:51:58.862Z,73.64
2023-08-09T14:54:45.849Z,73.39
2023-08-09T14:57:33.264Z,73.20
2023-08-09T15:00:18.926Z,73.45
2023-08-09T15:03:05.779Z,73.09
2023-08-09T15:05:51.547Z,73.64
2023-08-09T15:08:38.609Z,73.29
2023-08-09T15:11:24.532Z,73.50
2023-08-09T15:14:10.375Z,73.51
2023-08-09T15:16:58.947Z,73.40
2023-08-09T15:19:49.873Z,73.56
2023-08-09T15:22:35.891Z,73.51
2023-08-09T15:25:24.458Z,73.27
2023-08-09T15:28:10.343Z,73.55
2023-08-09T15:30:58.176Z,72.97
2023-08-09T15:33:43.888Z,73.40
2023-08-09T15:36:30.398Z,73.45
2023-08-09T15:39:16.193Z,73.13
2023-08-09T15:42:15.729Z,73.66
2023-08-09T15:45:05.382Z,73.52
2023-08-09T15:47:51.786Z,73.66
2023-08-09T15:50:38.581Z,73.13
2023-08-09T15:53:27.317Z,73.43
2023-08-09T15:56:13.586Z,73.29
2023-08-09T15:59:07.900Z,73.90
2023-08-09T16:01:55.823Z,74.02
2023-08-09T16:04:43.448Z,73.52
2023-08-09T16:07:30.549Z,73.37
2023-08-09T16:10:17.471Z,72.80
2023-08-09T16:13:05.615Z,72.63
2023-08-09T16:15:54.473Z,72.36
2023-08-09T16:18:40.552Z,72.30
2023-08-09T16:21:27.642Z,71.87
2023-08-09T16:24:13.938Z,71.75
2023-08-09T16:27:17.987Z,71.91
2023-08-09T16:30:06.839Z,71.70
2023-08-09T16:32:54.025Z,71.69
2023-08-09T16:35:43.999Z,72.07
2023-08-09T16:38:29.933Z,71.93
2023-08-09T16:41:19.541Z,71.48
2023-08-09T16:44:06.348Z,71.63
2023-08-09T16:47:09.741Z,71.52
2023-08-09T16:49:56.171Z,72.33
2023-08-09T16:52:42.534Z,71.96
2023-08-09T16:55:30.253Z,71.91
2023-08-09T16:58:17.696Z,72.18
2023-08-09T17:01:06.320Z,71.84
2023-08-09T17:03:54.365Z,72.32
2023-08-09T17:06:41.542Z,71.96
2023-08-09T17:09:28.250Z,72.04
2023-08-09T17:12:16.722Z,72.18
2023-08-09T17:15:04.107Z,71.91
2023-08-09T17:17:51.550Z,72.29
2023-08-09T17:20:42.104Z,72.48
2023-08-09T17:23:35.056Z,72.56
2023-08-09T17:26:20.860Z,72.82
2023-08-09T17:29:07.415Z,72.59
2023-08-09T17:31:54.119Z,72.94
2023-08-09T17:34:40.956Z,72.63
2023-08-09T17:37:28.446Z,72.86
2023-08-09T17:40:17.028Z,72.89
2023-08-09T17:43:03.514Z,73.50
2023-08-09T17:45:50.506Z,73.22
2023-08-09T17:48:36.601Z,73.51
2023-08-09T17:51:23.864Z,74.12
2023-08-09T17:54:09.622Z,74.13
2023-08-09T17:56:56.087Z,74.63
2023-08-09T17:59:42.469Z,74.59
2023-08-09T18:02:29.299Z,75.79
2023-08-09T18:05:15.871Z,76.21
2023-08-09T18:08:02.380Z,76.08
2023-08-09T18:10:49.703Z,76.39
2023-08-09T18:13:38.207Z,77.04
2023-08-09T18:16:24.226Z,77.38
2023-08-09T18:19:10.988Z,77.65
2023-08-09T18:21:56.816Z,78.27
2023-08-09T18:24:43.036Z,78.73
2023-08-09T18:27:28.996Z,78.28
2023-08-09T18:30:15.916Z,78.69
2023-08-09T18:33:03.575Z,79.19
2023-08-09T18:35:52.116Z,79.74
2023-08-09T18:38:37.762Z,79.96
2023-08-09T18:41:24.248Z,80.87
2023-08-09T18:44:10.197Z,81.41
2023-08-09T18:46:57.184Z,81.22
2023-08-09T18:49:44.204Z,81.63
2023-08-09T18:52:32.066Z,82.75
2023-08-09T18:55:20.145Z,83.07
2023-08-09T18:58:09.891Z,83.50
2023-08-09T19:00:55.776Z,83.81
2023-08-09T19:03:44.759Z,84.50
2023-08-09T19:06:31.498Z,85.35
2023-08-09T19:09:17.892Z,85.84
2023-08-09T19:12:05.889Z,85.77
2023-08-09T19:14:52.880Z,86.54
2023-08-09T19:17:39.170Z,86.95
2023-08-09T19:20:30.491Z,87.40
2023-08-09T19:23:16.601Z,87.50
2023-08-09T19:26:03.935Z,87.82
2023-08-09T19:28:50.370Z,87.37
2023-08-09T19:31:40.150Z,88.35
2023-08-09T19:34:30.065Z,88.31
2023-08-09T19:37:17.420Z,88.21
2023-08-09T19:40:06.170Z,89.10
2023-08-09T19:42:53.219Z,89.53
2023-08-09T19:45:39.891Z,89.63
2023-08-09T19:48:27.883Z,90.15
2023-08-09T19:51:13.716Z,90.78
2023-08-09T19:53:59.853Z,90.91
2023-08-09T19:56:46.048Z,91.40
2023-08-09T19:59:32.709Z,91.55
2023-08-09T20:02:19.891Z,91.65
2023-08-09T20:05:08.962Z,91.56
2023-08-09T20:08:00.154Z,91.86
2023-08-09T20:10:47.233Z,91.98
2023-08-09T20:13:33.404Z,91.88
2023-08-09T20:16:19.800Z,92.11
2023-08-09T20:19:07.307Z,92.83
2023-08-09T20:21:54.962Z,93.37
2023-08-09T20:24:43.318Z,93.78
2023-08-09T20:27:29.562Z,93.78
2023-08-09T20:30:15.559Z,93.85
2023-08-09T20:33:01.941Z,94.40
2023-08-09T20:35:48.170Z,94.43
2023-08-09T20:38:34.971Z,95.03
2023-08-09T20:41:21.004Z,95.47
2023-08-09T20:44:07.144Z,95.51
2023-08-09T20:46:53.245Z,95.32
2023-08-09T20:49:39.426Z,95.51
2023-08-09T20:52:26.180Z,95.86
2023-08-09T20:55:12.285Z,95.71
2023-08-09T20:57:57.904Z,96.08
2023-08-09T21:00:46.194Z,96.28
2023-08-09T21:03:32.454Z,96.39
2023-08-09T21:06:19.630Z,96.74
2023-08-09T21:09:06.008Z,96.51
2023-08-09T21:11:54.743Z,96.86
2023-08-09T21:14:40.717Z,96.89
2023-08-09T21:17:27.586Z,96.77
2023-08-09T21:20:17.968Z,97.17
2023-08-09T21:23:08.905Z,96.64
2023-08-09T21:25:54.859Z,96.73
2023-08-09T21:28:47.146Z,96.86
2023-08-09T21:31:34.277Z,96.63
2023-08-09T21:34:20.576Z,96.61
2023-08-09T21:37:06.573Z,96.03
2023-08-09T21:39:53.342Z,96.18
2023-08-09T21:42:39.216Z,96.31
2023-08-09T21:45:25.218Z,96.45
2023-08-09T21:48:13.418Z,96.28
2023-08-09T21:51:01.937Z,96.79
2023-08-09T21:53:48.055Z,96.34
2023-08-09T21:56:34.577Z,96.45
2023-08-09T21:59:20.379Z,96.74
2023-08-09T22:02:07.381Z,95.68
2023-08-09T22:04:54.332Z,95.77
2023-08-09T22:07:40.972Z,95.88
2023-08-09T22:10:27.068Z,96.08
2023-08-09T22:13:14.492Z,95.56
2023-08-09T22:16:01.127Z,95.75
2023-08-09T22:18:47.354Z,95.64
2023-08-09T22:21:41.992Z,95.84
2023-08-09T22:24:38.846Z,95.58
2023-08-09T22:27:25.070Z,95.80
2023-08-09T22:30:12.674Z,95.84
2023-08-09T22:32:58.839Z,96.19
2023-08-09T22:35:47.364Z,96.13
2023-08-09T22:38:33.770Z,96.46
2023-08-09T22:41:19.897Z,96.92
2023-08-09T22:44:07.132Z,96.82
2023-08-09T22:46:53.350Z,96.93
2023-08-09T22:49:39.150Z,96.99
2023-08-09T22:52:26.057Z,97.32
2023-08-09T22:55:13.866Z,97.33
2023-08-09T22:58:01.404Z,97.80
2023-08-09T23:00:48.084Z,98.35
2023-08-09T23:03:34.923Z,98.23
2023-08-09T23:06:21.376Z,97.95
2023-08-09T23:09:10.675Z,98.27
2023-08-09T23:11:57.525Z,98.75
2023-08-09T23:14:44.429Z,98.08
2023-08-09T23:17:30.719Z,98.35
2023-08-09T23:20:17.307Z,98.54
2023-08-09T23:23:03.371Z,98.64
2023-08-09T23:25:49.781Z,98.60
2023-08-09T23:28:36.667Z,98.45
2023-08-09T23:31:24.226Z,99.38
2023-08-09T23:34:09.913Z,99.50
2023-08-09T23:36:56.422Z,100.00
2023-08-09T23:39:43.117Z,99.64
2023-08-09T23:42:29.779Z,99.93
2023-08-09T23:45:15.431Z,99.66
2023-08-09T23:48:04.207Z,100.00
2023-08-09T23:50:50.312Z,100.00
2023-08-09T23:53:37.053Z,100.00
2023-08-09T23:56:23.317Z,100.00
2023-08-09T23:59:09.457Z,100.00
